createdAt,value
2022-08-23T00:04:34.985Z,3.10
2022-08-23T00:09:37.310Z,2.96
2022-08-23T00:14:45.426Z,3.02
2022-08-23T00:40:09.147Z,2.42
2022-08-23T00:50:24.234Z,2.76
2022-08-23T00:55:27.560Z,2.58
2022-08-23T01:00:38.333Z,2.72
2022-08-23T01:05:35.607Z,3.04
2022-08-23T01:10:45.561Z,2.94
2022-08-23T01:15:51.782Z,2.46
2022-08-23T01:20:57.966Z,2.48
2022-08-23T01:26:03.689Z,2.47
2022-08-23T01:31:09.811Z,2.63
2022-08-23T01:36:16.042Z,2.63
2022-08-23T01:41:22.170Z,2.52
2022-08-23T01:46:28.455Z,2.48
2022-08-23T01:51:34.724Z,2.67
2022-08-23T01:56:41.077Z,2.40
2022-08-23T02:01:47.347Z,2.58
2022-08-23T02:06:53.590Z,2.69
2022-08-23T02:11:59.718Z,2.72
2022-08-23T02:17:05.954Z,2.49
2022-08-23T02:22:12.146Z,2.56
2022-08-23T02:27:18.403Z,2.98
2022-08-23T02:32:27.066Z,3.03
2022-08-23T02:37:30.584Z,2.50
2022-08-23T02:42:36.605Z,2.65
2022-08-23T02:47:42.788Z,2.65
2022-08-23T02:52:48.929Z,2.67
2022-08-23T02:57:55.257Z,2.55
2022-08-23T03:03:01.301Z,2.76
2022-08-23T03:08:07.529Z,2.68
2022-08-23T03:13:13.695Z,2.91
2022-08-23T03:18:19.981Z,2.88
2022-08-23T03:23:26.439Z,2.96
2022-08-23T03:28:32.654Z,2.49
2022-08-23T03:33:38.832Z,2.72
2022-08-23T03:38:45.008Z,3.00
2022-08-23T03:43:51.171Z,2.81
2022-08-23T03:48:57.408Z,2.79
2022-08-23T03:54:03.546Z,3.21
2022-08-23T03:59:09.755Z,3.06
2022-08-23T04:04:15.994Z,3.07
2022-08-23T04:09:22.578Z,2.89
2022-08-23T04:14:29.053Z,3.32
2022-08-23T04:19:35.276Z,3.12
2022-08-23T04:24:41.370Z,3.38
2022-08-23T04:29:47.753Z,2.89
2022-08-23T04:34:53.889Z,3.05
2022-08-23T04:40:00.391Z,2.91
2022-08-23T04:45:06.537Z,3.34
2022-08-23T04:50:12.762Z,3.56
2022-08-23T04:55:18.911Z,3.11
2022-08-23T05:00:27.988Z,3.09
2022-08-23T05:05:31.176Z,3.24
2022-08-23T05:10:37.749Z,3.26
2022-08-23T05:15:43.993Z,3.55
2022-08-23T05:20:50.573Z,3.92
2022-08-23T05:25:56.759Z,3.65
2022-08-23T05:31:25.599Z,3.63
2022-08-23T05:36:31.803Z,3.33
2022-08-23T05:41:38.623Z,3.77
2022-08-23T05:46:44.233Z,3.81
2022-08-23T05:51:51.671Z,3.66
2022-08-23T05:56:56.242Z,3.85
2022-08-23T06:02:02.561Z,3.38
2022-08-23T06:07:08.670Z,3.51
2022-08-23T06:12:14.995Z,3.57
2022-08-23T06:17:21.465Z,3.53
2022-08-23T06:22:27.738Z,3.42
2022-08-23T06:27:33.855Z,3.45
2022-08-23T06:32:40.108Z,3.49
2022-08-23T06:37:46.221Z,3.63
2022-08-23T06:42:52.646Z,4.05
2022-08-23T06:47:58.862Z,3.06
2022-08-23T06:53:07.245Z,3.66
2022-08-23T06:58:10.725Z,3.21
2022-08-23T07:03:16.543Z,3.64
2022-08-23T07:08:22.674Z,3.63
2022-08-23T07:13:28.998Z,3.74
2022-08-23T07:18:35.163Z,3.44
2022-08-23T07:23:44.812Z,3.35
2022-08-23T07:28:47.085Z,3.45
2022-08-23T07:33:52.833Z,3.10
2022-08-23T07:38:58.479Z,3.19
2022-08-23T07:44:04.738Z,3.47
2022-08-23T07:49:10.522Z,3.50
2022-08-23T07:54:16.802Z,2.95
2022-08-23T07:59:22.950Z,2.98
2022-08-23T08:04:29.132Z,2.96
2022-08-23T08:09:35.279Z,3.01
2022-08-23T08:14:41.501Z,3.03
2022-08-23T08:19:47.610Z,2.96
2022-08-23T08:24:53.819Z,2.95
2022-08-23T08:30:00.337Z,3.33
2022-08-23T08:35:06.576Z,2.85
2022-08-23T08:40:12.766Z,2.83
2022-08-23T08:45:21.262Z,2.87
2022-08-23T08:50:26.922Z,2.75
2022-08-23T08:55:33.138Z,2.66
2022-08-23T09:00:39.258Z,2.52
2022-08-23T09:05:45.487Z,2.55
2022-08-23T09:10:51.643Z,2.45
2022-08-23T09:15:57.993Z,2.32
2022-08-23T09:21:04.117Z,2.69
2022-08-23T09:26:10.298Z,2.16
2022-08-23T09:31:16.451Z,2.45
2022-08-23T09:36:22.638Z,2.66
2022-08-23T09:41:29.151Z,2.74
2022-08-23T09:46:35.405Z,2.57
2022-08-23T09:51:41.497Z,2.60
2022-08-23T09:56:47.242Z,2.39
2022-08-23T10:01:53.413Z,2.24
2022-08-23T10:06:59.570Z,2.56
2022-08-23T10:12:07.550Z,2.14
2022-08-23T10:17:11.573Z,2.19
2022-08-23T10:22:17.689Z,2.36
2022-08-23T10:27:23.906Z,2.04
2022-08-23T10:32:30.395Z,2.00
2022-08-23T10:37:36.630Z,2.09
2022-08-23T10:42:43.722Z,2.14
2022-08-23T10:47:50.095Z,2.05
2022-08-23T10:52:56.209Z,2.10
2022-08-23T10:58:02.583Z,2.13
2022-08-23T11:03:08.522Z,2.11
2022-08-23T11:08:14.998Z,2.09
2022-08-23T11:13:21.083Z,2.32
2022-08-23T11:18:29.031Z,2.18
2022-08-23T11:23:32.970Z,2.31
2022-08-23T11:28:39.230Z,2.37
2022-08-23T11:33:45.386Z,2.32
2022-08-23T11:38:51.744Z,2.29
2022-08-23T11:43:57.872Z,2.21
2022-08-23T11:49:04.097Z,2.05
2022-08-23T11:54:10.207Z,2.39
2022-08-23T11:59:16.560Z,2.13
2022-08-23T12:04:22.217Z,2.14
2022-08-23T12:09:28.475Z,2.07
2022-08-23T12:14:34.638Z,2.10
2022-08-23T12:19:40.832Z,2.03
2022-08-23T12:24:47.091Z,1.91
2022-08-23T12:29:53.273Z,2.19
2022-08-23T12:35:02.412Z,2.30
2022-08-23T12:40:08.746Z,2.34
2022-08-23T12:45:14.787Z,2.03
2022-08-23T12:50:21.038Z,1.92
2022-08-23T12:55:26.701Z,2.28
2022-08-23T13:00:33.896Z,2.15
2022-08-23T13:05:38.521Z,2.28
2022-08-23T13:10:44.710Z,2.31
2022-08-23T13:15:51.022Z,2.03
2022-08-23T13:20:57.278Z,2.21
2022-08-23T13:26:03.378Z,1.89
2022-08-23T13:31:09.799Z,2.15
2022-08-23T13:36:15.883Z,2.05
2022-08-23T13:41:22.178Z,2.07
2022-08-23T13:46:28.518Z,1.96
2022-08-23T13:51:37.022Z,2.29
2022-08-23T13:56:40.326Z,2.23
2022-08-23T14:01:46.620Z,2.18
2022-08-23T14:06:52.710Z,2.17
2022-08-23T14:11:58.889Z,2.18
2022-08-23T14:17:05.069Z,2.29
2022-08-23T14:22:11.169Z,2.57
2022-08-23T14:27:18.264Z,2.37
2022-08-23T14:32:24.505Z,2.03
2022-08-23T14:42:36.397Z,2.16
2022-08-23T14:47:42.849Z,1.96
2022-08-23T14:52:49.069Z,1.99
2022-08-23T14:57:55.283Z,2.22
2022-08-23T15:03:03.395Z,2.19
2022-08-23T15:08:07.380Z,2.03
2022-08-23T15:13:20.937Z,2.09
2022-08-23T15:18:19.291Z,1.91
2022-08-23T15:23:25.574Z,1.99
2022-08-23T15:28:31.735Z,2.16
2022-08-23T15:33:38.022Z,2.22
2022-08-23T15:38:43.641Z,1.87
2022-08-23T15:43:49.967Z,1.92
2022-08-23T15:48:56.221Z,2.04
2022-08-23T15:54:02.626Z,1.88
2022-08-23T15:59:08.774Z,2.15
2022-08-23T16:04:15.494Z,2.15
2022-08-23T16:09:21.713Z,2.04
2022-08-23T16:14:28.006Z,2.09
2022-08-23T16:19:34.126Z,1.92
2022-08-23T16:25:41.629Z,2.04
2022-08-23T16:30:47.956Z,2.07
2022-08-23T16:35:54.125Z,1.92
2022-08-23T16:41:00.274Z,2.39
2022-08-23T16:46:06.492Z,1.81
2022-08-23T16:51:12.665Z,2.14
2022-08-23T16:56:20.021Z,2.04
2022-08-23T17:01:26.207Z,1.98
2022-08-23T17:06:32.382Z,2.11
2022-08-23T17:11:38.813Z,2.17
2022-08-23T17:16:45.118Z,1.96
2022-08-23T17:21:51.173Z,2.10
2022-08-23T17:26:57.427Z,2.13
2022-08-23T17:32:03.648Z,2.10
2022-08-23T17:37:10.037Z,1.74
2022-08-23T17:42:16.342Z,1.81
2022-08-23T17:47:35.407Z,1.96
2022-08-23T17:52:41.573Z,1.57
2022-08-23T17:57:48.315Z,1.61
2022-08-23T18:02:53.554Z,1.70
2022-08-23T18:07:59.786Z,1.77
2022-08-23T18:13:05.901Z,1.57
2022-08-23T18:18:12.457Z,1.68
2022-08-23T18:23:18.737Z,1.68
2022-08-23T18:28:26.110Z,1.72
2022-08-23T18:33:47.087Z,1.88
2022-08-23T18:38:38.069Z,1.97
2022-08-23T18:43:44.393Z,1.79
2022-08-23T18:49:23.139Z,2.14
2022-08-23T18:54:33.475Z,1.98
2022-08-23T18:59:35.275Z,2.16
2022-08-23T19:04:41.418Z,1.80
2022-08-23T19:09:47.777Z,2.01
2022-08-23T19:14:53.959Z,1.90
2022-08-23T19:20:00.717Z,1.99
2022-08-23T19:25:06.817Z,2.16
2022-08-23T19:30:13.049Z,1.86
2022-08-23T19:35:18.796Z,1.80
2022-08-23T19:40:25.161Z,2.21
2022-08-23T19:45:32.152Z,1.90
2022-08-23T19:50:37.390Z,1.92
2022-08-23T19:55:43.622Z,1.61
2022-08-23T20:01:41.121Z,2.00
2022-08-23T20:06:47.239Z,1.71
2022-08-23T20:11:53.542Z,1.84
2022-08-23T20:16:59.613Z,1.76
2022-08-23T20:22:05.877Z,1.98
2022-08-23T20:27:12.080Z,1.87
2022-08-23T20:32:18.001Z,1.96
2022-08-23T20:37:24.112Z,1.89
2022-08-23T20:42:30.388Z,1.96
2022-08-23T20:47:36.619Z,1.86
2022-08-23T20:52:43.155Z,1.91
2022-08-23T20:57:49.269Z,1.72
2022-08-23T21:02:55.632Z,2.05
2022-08-23T21:08:01.753Z,1.81
2022-08-23T21:13:10.509Z,1.84
2022-08-23T21:18:13.686Z,1.86
2022-08-23T21:23:19.894Z,1.78
2022-08-23T21:28:26.074Z,2.02
2022-08-23T21:33:34.645Z,2.04
2022-08-23T21:38:38.110Z,1.79
2022-08-23T21:43:44.273Z,1.52
2022-08-23T21:48:50.537Z,1.82
2022-08-23T21:53:56.833Z,1.62
2022-08-23T21:59:03.061Z,1.86
2022-08-23T22:04:09.293Z,1.58
2022-08-23T22:09:15.414Z,1.63
2022-08-23T22:14:22.055Z,1.61
2022-08-23T22:19:28.422Z,1.82
2022-08-23T22:24:34.774Z,1.78
2022-08-23T22:29:40.954Z,1.79
2022-08-23T22:34:47.094Z,1.78
2022-08-23T22:39:53.453Z,1.75
2022-08-23T22:44:59.651Z,1.60
2022-08-23T22:50:05.806Z,1.81
2022-08-23T22:55:12.475Z,1.69
2022-08-23T23:00:18.690Z,1.74
2022-08-23T23:05:24.588Z,1.97
2022-08-23T23:10:30.816Z,1.88
2022-08-23T23:15:37.071Z,2.48
2022-08-23T23:20:43.242Z,2.15
2022-08-23T23:25:49.499Z,1.52
2022-08-23T23:30:55.772Z,1.77
2022-08-23T23:36:02.091Z,1.82
2022-08-23T23:41:08.770Z,1.88
2022-08-23T23:46:15.208Z,1.65
2022-08-23T23:51:21.329Z,1.79
2022-08-23T23:56:27.635Z,2.62
